Time;durP1;ratioP1;P1;durP2;ratioP2;P2;SDS_P1;SDS_P2;PMS_P1;PMS_P2;Temp;Humidity;BMP_temperature;BMP_pressure;BME280_temperature;BME280_humidity;BME280_pressure;Samples;Min_cycle;Max_cycle;Signal;HPM_P1;HPM_P2
2022/12/06 00:01:35;;;;;;;;;;;4.00;99.90;;;3.20;100.00;97453.97;5067396;28;19923;-40
2022/12/06 00:04:06;;;;;;;;;;;4.00;99.90;;;3.19;100.00;97449.63;5067697;28;19920;-40
2022/12/06 00:06:35;;;;;;;;;;;4.00;99.90;;;3.20;100.00;97454.81;5065159;28;19920;-40
2022/12/06 00:09:01;;;;;;;;;;;4.00;99.90;;;3.19;100.00;97444.41;5066218;28;19928;-40
2022/12/06 00:11:29;;;;;;;;;;;4.00;99.90;;;3.20;100.00;97459.19;5067096;28;20283;-40
2022/12/06 00:13:57;;;;;;;;;;;4.00;99.90;;;3.19;100.00;97458.28;5068596;28;19912;-40
2022/12/06 00:16:23;;;;;;;;;;;4.00;99.90;;;3.16;100.00;97453.13;5066590;28;19916;-40
2022/12/06 00:18:49;;;;;;;;;;;4.00;99.90;;;3.12;100.00;97456.59;5068457;28;19953;-40
2022/12/06 00:21:20;;;;;;;;;;;4.00;99.90;;;3.12;100.00;97453.13;5050193;28;20018;-40
2022/12/06 00:23:51;;;;;;;;;;;4.00;99.90;;;3.12;100.00;97456.59;5070293;28;20351;-40
2022/12/06 00:26:16;;;;;;;;;;;3.90;99.90;;;2.97;100.00;97431.50;5063201;28;20027;-40
2022/12/06 00:28:42;;;;;;;;;;;3.90;99.90;;;3.11;100.00;97454.88;5060342;28;20372;-40
2022/12/06 00:31:11;;;;;;;;;;;3.90;99.90;;;3.11;100.00;97448.81;5064410;28;20108;-40
2022/12/06 00:33:37;;;;;;;;;;;3.90;99.90;;;3.05;100.00;97450.59;5067692;28;20157;-40
2022/12/06 00:36:09;;;;;;;;;;;3.90;99.90;;;3.02;100.00;97447.13;5067326;28;20006;-40
2022/12/06 00:38:35;;;;;;;;;;;3.90;99.90;;;2.97;100.00;97436.72;5045280;28;20023;-40
2022/12/06 00:41:12;;;;;;;;;;;3.80;99.90;;;2.95;100.00;97435.03;5069202;28;21043;-40
2022/12/06 00:43:38;;;;;;;;;;;3.80;99.90;;;2.92;100.00;97441.09;5069057;28;19912;-40
2022/12/06 00:46:05;;;;;;;;;;;3.80;99.90;;;2.91;100.00;97431.56;5069441;28;19920;-40
2022/12/06 00:48:31;;;;;;;;;;;3.80;99.90;;;2.90;100.00;97428.97;5066345;28;19916;-40
2022/12/06 00:50:57;;;;;;;;;;;3.70;99.90;;;2.84;100.00;97424.66;5068602;28;20049;-40
2022/12/06 00:53:23;;;;;;;;;;;3.70;99.90;;;2.86;100.00;97443.75;5066676;28;19915;-40
2022/12/06 00:55:49;;;;;;;;;;;3.70;99.90;;;2.82;100.00;97440.28;5064904;28;19920;-40
2022/12/06 00:58:15;;;;;;;;;;;3.60;99.90;;;2.80;100.00;97443.78;5065752;28;19912;-40
2022/12/06 01:00:41;;;;;;;;;;;3.60;99.90;;;2.66;100.00;97421.28;5057533;28;20584;-40
2022/12/06 01:03:07;;;;;;;;;;;3.60;99.90;;;2.78;100.00;97433.38;5060273;28;19924;-40
2022/12/06 01:05:33;;;;;;;;;;;3.60;99.90;;;2.77;100.00;97436.00;5062831;28;19920;-40
2022/12/06 01:07:59;;;;;;;;;;;3.60;99.90;;;2.64;100.00;97425.63;5069414;28;19912;-40
2022/12/06 01:10:24;;;;;;;;;;;3.60;99.90;;;2.70;100.00;97437.75;5060536;28;19920;-40
2022/12/06 01:12:50;;;;;;;;;;;3.50;99.90;;;2.71;100.00;97433.41;5066414;28;19924;-40
2022/12/06 01:15:16;;;;;;;;;;;3.50;99.90;;;2.66;100.00;97426.50;5065193;28;20053;-40
2022/12/06 01:17:41;;;;;;;;;;;3.60;99.90;;;2.74;100.00;97436.00;5069213;28;19946;-40
2022/12/06 01:20:07;;;;;;;;;;;3.60;99.90;;;2.68;100.00;97424.75;5069691;28;19920;-40
2022/12/06 01:22:33;;;;;;;;;;;3.60;99.90;;;2.80;100.00;97438.56;5074275;28;20300;-40
2022/12/06 01:24:59;;;;;;;;;;;3.60;99.90;;;2.81;100.00;97432.50;5070533;28;19915;-40
2022/12/06 01:27:25;;;;;;;;;;;3.60;99.90;;;2.80;100.00;97436.84;5074265;28;20365;-40
2022/12/06 01:29:50;;;;;;;;;;;3.60;99.90;;;2.82;100.00;97440.28;5053015;28;20340;-40
2022/12/06 01:32:16;;;;;;;;;;;3.60;99.90;;;2.85;100.00;97444.63;5071182;28;19912;-41
2022/12/06 01:34:43;;;;;;;;;;;3.60;99.90;;;2.81;100.00;97430.75;5069116;28;21187;-40
2022/12/06 01:37:10;;;;;;;;;;;3.70;99.90;;;2.88;100.00;97438.53;5066565;28;19912;-40
2022/12/06 01:39:36;;;;;;;;;;;3.70;99.90;;;2.89;100.00;97433.31;5063102;28;19924;-40
2022/12/06 01:42:01;;;;;;;;;;;3.70;99.90;;;2.90;100.00;97429.81;5067453;28;19939;-40
2022/12/06 01:44:41;;;;;;;;;;;3.70;99.90;;;2.92;100.00;97427.22;5069499;28;19927;-40
2022/12/06 01:47:27;;;;;;;;;;;3.70;99.90;;;2.88;100.00;97420.31;5061513;28;20095;-41
2022/12/06 01:49:57;;;;;;;;;;;3.70;99.90;;;2.94;100.00;97430.69;5053161;28;20409;-41
2022/12/06 01:52:29;;;;;;;;;;;3.70;99.90;;;2.94;100.00;97425.47;5056618;28;20208;-40
2022/12/06 01:54:55;;;;;;;;;;;3.70;99.90;;;2.96;100.00;97424.59;5057329;28;19933;-40
2022/12/06 01:57:21;;;;;;;;;;;3.80;99.90;;;2.99;100.00;97421.94;5074598;28;19987;-40
2022/12/06 01:59:47;;;;;;;;;;;3.80;99.90;;;2.95;100.00;97416.78;5053636;28;19975;-40
2022/12/06 02:02:13;;;;;;;;;;;3.80;99.90;;;3.00;100.00;97417.63;5069730;28;20371;-40
2022/12/06 02:04:39;;;;;;;;;;;3.80;99.90;;;2.96;100.00;97408.06;5067401;28;19913;-41
2022/12/06 02:07:04;;;;;;;;;;;3.90;99.90;;;2.97;100.00;97418.50;5055968;28;19919;-40
2022/12/06 02:09:30;;;;;;;;;;;3.80;99.90;;;2.87;100.00;97414.22;5051744;28;19998;-40
2022/12/06 02:11:56;;;;;;;;;;;3.80;99.90;;;2.90;100.00;97424.63;5055240;28;20287;-40
2022/12/06 02:14:26;;;;;;;;;;;3.70;99.90;;;2.85;100.00;97419.44;5068345;28;19920;-41
2022/12/06 02:17:01;;;;;;;;;;;3.70;99.90;;;2.83;100.00;97420.31;5051942;28;20014;-40
2022/12/06 02:19:51;;;;;;;;;;;3.60;99.90;;;2.74;100.00;97413.41;5052880;28;19921;-40
2022/12/06 02:22:20;;;;;;;;;;;3.60;99.90;;;2.72;100.00;97409.09;5063928;28;19920;-40
2022/12/06 02:25:19;;;;;;;;;;;3.60;99.90;;;2.73;100.00;97409.09;5047486;28;19912;-41
2022/12/06 02:28:14;;;;;;;;;;;3.60;99.90;;;2.73;100.00;97406.50;5072076;28;19912;-41
2022/12/06 02:30:56;;;;;;;;;;;3.60;99.90;;;2.73;100.00;97405.59;5064281;28;20008;-41
2022/12/06 02:33:49;;;;;;;;;;;3.60;99.90;;;2.72;100.00;97402.16;5063649;28;20067;-41
2022/12/06 02:36:37;;;;;;;;;;;3.60;99.90;;;2.74;100.00;97397.78;5050282;28;19951;-40
2022/12/06 02:39:33;;;;;;;;;;;3.60;99.90;;;2.73;100.00;97400.41;5055420;28;19927;-40
2022/12/06 02:42:13;;;;;;;;;;;3.60;99.90;;;2.78;100.00;97398.63;5040543;28;19916;-41
2022/12/06 02:44:43;;;;;;;;;;;3.60;99.90;;;2.60;100.00;97379.66;5068436;28;19916;-40
2022/12/06 02:47:10;;;;;;;;;;;3.60;99.90;;;2.59;100.00;97382.28;5048899;28;19920;-42
2022/12/06 02:49:37;;;;;;;;;;;3.60;99.90;;;2.66;100.00;97394.38;5046920;28;19965;-41
2022/12/06 02:52:03;;;;;;;;;;;3.50;99.90;;;2.70;100.00;97392.63;5042435;28;19951;-40
2022/12/06 02:54:30;;;;;;;;;;;3.60;99.90;;;2.71;100.00;97391.75;5054732;28;20268;-40
2022/12/06 02:56:55;;;;;;;;;;;3.60;99.90;;;2.70;100.00;97395.22;5049481;28;20367;-40
2022/12/06 02:59:21;;;;;;;;;;;3.60;99.90;;;2.66;100.00;97386.56;5068658;28;19916;-41
2022/12/06 03:01:49;;;;;;;;;;;3.50;99.90;;;2.69;100.00;97394.34;5064793;28;19919;-41
2022/12/06 03:04:33;;;;;;;;;;;3.60;99.90;;;2.68;100.00;97393.50;5065952;28;20022;-40
2022/12/06 03:07:20;;;;;;;;;;;3.60;99.90;;;2.69;100.00;97396.94;5070761;28;19916;-41
2022/12/06 03:10:03;;;;;;;;;;;3.60;99.90;;;2.66;100.00;97383.97;5067196;28;19947;-41
2022/12/06 03:12:29;;;;;;;;;;;3.50;99.90;;;2.70;100.00;97393.50;5052576;28;19928;-41
2022/12/06 03:15:28;;;;;;;;;;;3.60;99.90;;;2.74;100.00;97397.78;5066731;28;21104;-42
2022/12/06 03:18:22;;;;;;;;;;;3.60;99.90;;;2.73;100.00;97388.25;5071004;28;19946;-41
2022/12/06 03:20:53;;;;;;;;;;;3.60;99.90;;;2.71;100.00;97378.72;5069548;28;19919;-41
2022/12/06 03:23:23;;;;;;;;;;;3.60;99.90;;;2.73;100.00;97382.16;5050274;28;19920;-41
2022/12/06 03:25:50;;;;;;;;;;;3.60;99.90;;;2.73;100.00;97384.78;5071653;28;19992;-41
2022/12/06 03:28:16;;;;;;;;;;;3.60;99.90;;;2.77;100.00;97382.16;5068112;28;19920;-40
2022/12/06 03:30:45;;;;;;;;;;;3.60;99.90;;;2.74;100.00;97370.91;5057586;28;19986;-41
2022/12/06 03:33:11;;;;;;;;;;;3.60;99.90;;;2.70;100.00;97374.41;5045986;28;20409;-40
2022/12/06 03:35:37;;;;;;;;;;;3.60;99.90;;;2.70;100.00;97371.78;5034767;28;19919;-41
2022/12/06 03:38:07;;;;;;;;;;;3.50;99.90;;;2.55;100.00;97349.28;5039869;28;19916;-41
2022/12/06 03:40:35;;;;;;;;;;;3.60;99.90;;;2.68;100.00;97367.44;5049099;28;19969;-41
2022/12/06 03:43:02;;;;;;;;;;;3.60;99.90;;;2.64;100.00;97375.31;5037776;28;19924;-40
2022/12/06 03:45:36;;;;;;;;;;;3.50;99.90;;;2.64;100.00;97368.34;5043167;28;20016;-41
2022/12/06 03:48:13;;;;;;;;;;;3.50;99.90;;;2.65;100.00;97367.47;5062818;28;20278;-41
2022/12/06 03:50:44;;;;;;;;;;;3.50;99.90;;;2.65;100.00;97366.59;5053070;28;20247;-41
2022/12/06 03:53:09;;;;;;;;;;;3.60;99.90;;;2.72;100.00;97372.66;5062491;28;20306;-41
2022/12/06 03:55:35;;;;;;;;;;;3.60;99.90;;;2.65;100.00;97361.41;5056815;28;20363;-41
2022/12/06 03:58:01;;;;;;;;;;;3.50;99.90;;;2.67;100.00;97364.84;5068897;28;20057;-40
2022/12/06 04:00:26;;;;;;;;;;;3.50;99.90;;;2.63;100.00;97370.97;5067488;28;19922;-41
2022/12/06 04:02:52;;;;;;;;;;;3.50;99.90;;;2.58;100.00;97357.94;5069944;28;19916;-41
2022/12/06 04:05:18;;;;;;;;;;;3.50;99.90;;;2.62;100.00;97356.19;5066711;28;20049;-41
2022/12/06 04:07:43;;;;;;;;;;;3.50;99.90;;;2.66;100.00;97357.94;5068574;28;20928;-40
2022/12/06 04:10:09;;;;;;;;;;;3.50;99.90;;;2.67;100.00;97362.25;5066532;28;19973;-41
2022/12/06 04:15:21;;;;;;;;;;;3.50;99.90;;;2.71;100.00;97357.88;5068439;28;20271;-41
2022/12/06 04:23:18;;;;;;;;;;;3.50;99.90;;;2.73;100.00;97346.59;5084533;22;20337;-58
2022/12/06 04:25:44;;;;;;;;;;;3.60;99.90;;;2.69;100.00;97344.88;5064155;28;19928;-58
2022/12/06 04:39:06;;;;;;;;;;;3.60;99.90;;;2.76;100.00;97332.69;5048298;28;19974;-58
2022/12/06 04:44:16;;;;;;;;;;;3.60;99.90;;;2.71;100.00;97319.72;5049731;28;19926;-58
2022/12/06 04:46:42;;;;;;;;;;;3.60;99.90;;;2.85;100.00;97337.81;5052652;28;19916;-57
2022/12/06 04:49:07;;;;;;;;;;;3.70;99.90;;;2.89;100.00;97333.44;5049699;28;19928;-58
2022/12/06 04:51:33;;;;;;;;;;;3.70;99.90;;;2.91;100.00;97331.69;5054112;28;19956;-58
2022/12/06 04:53:59;;;;;;;;;;;3.70;99.90;;;2.93;100.00;97338.63;5048881;28;20278;-58
2022/12/06 04:56:24;;;;;;;;;;;3.80;99.90;;;2.97;100.00;97334.28;5057806;28;19919;-57
2022/12/06 04:58:50;;;;;;;;;;;3.80;99.90;;;2.99;100.00;97332.50;5033584;28;19920;-57
2022/12/06 05:01:16;;;;;;;;;;;3.80;99.90;;;3.01;100.00;97326.41;5054654;28;19962;-58
2022/12/06 05:03:41;;;;;;;;;;;3.80;99.90;;;3.00;100.00;97321.22;5052966;28;19912;-58
2022/12/06 05:06:07;;;;;;;;;;;3.80;99.90;;;3.02;100.00;97322.94;5051367;28;20266;-58
2022/12/06 05:08:33;;;;;;;;;;;3.90;99.90;;;3.00;100.00;97316.00;5050918;28;19912;-57
2022/12/06 05:10:58;;;;;;;;;;;3.90;99.90;;;3.06;100.00;97322.00;5050916;28;19927;-58
2022/12/06 05:13:24;;;;;;;;;;;3.90;99.90;;;3.10;100.00;97322.84;5053763;28;19927;-58
2022/12/06 05:15:54;;;;;;;;;;;3.90;99.90;;;3.11;100.00;97319.38;5052264;28;19927;-58
2022/12/06 05:18:21;;;;;;;;;;;3.90;99.90;;;3.10;100.00;97322.84;5057526;28;19916;-58
2022/12/06 05:20:47;;;;;;;;;;;3.90;99.90;;;3.13;100.00;97327.19;5053806;28;19927;-58
2022/12/06 05:23:12;;;;;;;;;;;4.00;99.90;;;3.17;100.00;97339.31;5052871;28;19916;-59
2022/12/06 05:25:38;;;;;;;;;;;4.00;99.90;;;3.14;100.00;97334.13;5048568;28;19942;-58
2022/12/06 05:28:03;;;;;;;;;;;4.00;99.90;;;3.15;100.00;97330.66;5047955;28;19920;-58
2022/12/06 05:30:29;;;;;;;;;;;4.00;99.90;;;3.16;100.00;97332.34;5047155;28;19973;-58
2022/12/06 05:32:55;;;;;;;;;;;4.00;99.90;;;3.16;100.00;97328.03;5053879;28;20031;-58
2022/12/06 05:35:20;;;;;;;;;;;4.00;99.90;;;3.14;100.00;97329.78;5042116;28;20417;-58
2022/12/06 05:37:46;;;;;;;;;;;4.00;99.90;;;3.15;100.00;97323.69;5045151;28;19921;-58
2022/12/06 05:40:12;;;;;;;;;;;4.00;99.90;;;3.16;100.00;97327.16;5052628;28;20177;-57
2022/12/06 05:42:41;;;;;;;;;;;4.00;99.90;;;3.14;100.00;97321.09;5047362;28;19925;-58
2022/12/06 05:45:07;;;;;;;;;;;4.00;99.90;;;3.13;100.00;97335.00;5046744;28;19951;-58
2022/12/06 05:47:33;;;;;;;;;;;4.00;99.90;;;3.09;100.00;97326.34;5054369;28;19919;-58
2022/12/06 05:49:59;;;;;;;;;;;3.90;99.90;;;3.08;100.00;97319.41;5052053;28;19924;-59
2022/12/06 05:52:24;;;;;;;;;;;3.90;99.90;;;3.10;100.00;97328.06;5052479;28;20006;-60
2022/12/06 05:54:50;;;;;;;;;;;3.90;99.90;;;3.10;100.00;97320.25;5048987;28;19916;-59
2022/12/06 05:57:15;;;;;;;;;;;3.90;99.90;;;3.10;100.00;97320.25;5053270;28;20327;-60
2022/12/06 05:59:41;;;;;;;;;;;3.90;99.90;;;3.10;100.00;97320.25;5049330;28;19981;-59
2022/12/06 06:02:07;;;;;;;;;;;3.90;99.90;;;3.11;100.00;97323.75;5053222;28;19969;-60
2022/12/06 06:04:32;;;;;;;;;;;3.90;99.90;;;3.09;100.00;97321.16;5047042;28;20277;-60
2022/12/06 06:06:58;;;;;;;;;;;4.00;99.90;;;3.12;100.00;97326.31;5039674;28;19997;-60
2022/12/06 06:09:26;;;;;;;;;;;3.90;99.90;;;3.12;100.00;97331.53;5042937;28;19950;-58
2022/12/06 06:11:52;;;;;;;;;;;4.00;99.90;;;3.11;100.00;97335.03;5044423;28;19963;-58
2022/12/06 06:14:18;;;;;;;;;;;3.90;99.90;;;3.12;100.00;97331.53;5049533;28;19921;-58
2022/12/06 06:16:44;;;;;;;;;;;3.90;99.90;;;3.12;100.00;97330.66;5037190;28;19912;-58
2022/12/06 06:19:09;;;;;;;;;;;3.90;99.90;;;3.10;100.00;97332.44;5035008;28;19920;-60
2022/12/06 06:21:35;;;;;;;;;;;3.90;99.90;;;3.08;100.00;97326.38;5039361;28;19931;-60
2022/12/06 06:24:01;;;;;;;;;;;3.90;99.90;;;3.04;100.00;97326.38;5040951;28;20483;-52
2022/12/06 06:26:26;;;;;;;;;;;3.90;99.90;;;3.03;100.00;97329.88;5041386;28;19921;-61
2022/12/06 06:28:52;;;;;;;;;;;3.90;99.90;;;3.02;100.00;97327.28;5036375;28;19912;-61
2022/12/06 06:31:17;;;;;;;;;;;3.90;99.90;;;3.04;100.00;97317.72;5042329;28;20446;-61
2022/12/06 06:33:43;;;;;;;;;;;3.90;99.90;;;3.01;100.00;97331.59;5045965;28;19920;-58
2022/12/06 06:36:09;;;;;;;;;;;3.90;99.90;;;3.05;100.00;97322.91;5053296;28;19944;-61
2022/12/06 06:38:34;;;;;;;;;;;3.90;99.90;;;3.08;100.00;97323.75;5042857;28;20369;-59
2022/12/06 06:41:02;;;;;;;;;;;3.90;99.90;;;3.07;100.00;97307.28;5049998;28;19915;-59
2022/12/06 06:43:29;;;;;;;;;;;3.90;99.90;;;3.03;100.00;97309.03;5047438;28;19955;-59
2022/12/06 06:45:57;;;;;;;;;;;3.90;99.90;;;3.05;100.00;97314.22;5047395;28;20372;-59
2022/12/06 06:48:23;;;;;;;;;;;3.90;99.90;;;3.06;100.00;97316.81;5035153;28;19920;-59
2022/12/06 06:50:49;;;;;;;;;;;3.90;99.90;;;3.04;100.00;97323.78;5049320;28;19958;-59
2022/12/06 06:53:15;;;;;;;;;;;3.90;99.90;;;3.06;100.00;97331.59;5042207;28;20195;-59
2022/12/06 06:55:45;;;;;;;;;;;3.90;99.90;;;2.99;100.00;97335.97;5042321;28;19919;-59
2022/12/06 06:58:13;;;;;;;;;;;3.90;99.90;;;3.05;100.00;97327.25;5051889;28;20627;-59
2022/12/06 07:00:39;;;;;;;;;;;3.90;99.90;;;3.01;100.00;97323.78;5049557;28;19920;-59
2022/12/06 07:03:04;;;;;;;;;;;3.90;99.90;;;3.00;100.00;97335.09;5050145;28;20096;-58
2022/12/06 07:05:30;;;;;;;;;;;3.90;99.90;;;2.86;100.00;97314.38;5049816;28;19928;-59
2022/12/06 07:07:56;;;;;;;;;;;3.80;99.90;;;2.96;100.00;97332.53;5044456;28;19917;-59
2022/12/06 07:10:24;;;;;;;;;;;3.80;99.90;;;2.98;100.00;97331.66;5046378;28;19959;-58
2022/12/06 07:12:50;;;;;;;;;;;3.80;99.90;;;2.95;100.00;97329.06;5048709;28;19913;-58
2022/12/06 07:15:15;;;;;;;;;;;3.80;99.90;;;2.95;100.00;97334.28;5051281;28;19915;-58
2022/12/06 07:17:41;;;;;;;;;;;3.80;99.90;;;2.92;100.00;97328.22;5051980;28;20002;-58
2022/12/06 07:20:07;;;;;;;;;;;3.80;99.90;;;2.97;100.00;97336.88;5054276;28;19923;-58
2022/12/06 07:22:33;;;;;;;;;;;3.80;99.90;;;2.98;100.00;97333.38;5052584;28;20015;-58
2022/12/06 07:24:58;;;;;;;;;;;3.80;99.90;;;2.99;100.00;97335.13;5050559;28;20398;-61
2022/12/06 07:27:24;;;;;;;;;;;3.90;99.90;;;3.04;100.00;97335.94;5048131;28;19995;-59
2022/12/06 07:29:49;;;;;;;;;;;3.90;99.90;;;3.08;100.00;97337.63;5045899;28;19916;-58
2022/12/06 07:32:15;;;;;;;;;;;3.90;99.90;;;3.14;100.00;97339.31;5049062;28;19942;-58
2022/12/06 07:34:41;;;;;;;;;;;3.90;99.90;;;3.15;100.00;97336.72;5045941;28;20003;-58
2022/12/06 07:37:06;;;;;;;;;;;4.00;99.90;;;3.18;100.00;97334.09;5049902;28;20002;-57
2022/12/06 07:39:32;;;;;;;;;;;4.00;99.90;;;3.22;100.00;97337.53;5044065;28;19916;-57
2022/12/06 07:45:00;;;;;;;;;;;4.10;99.90;;;3.29;100.00;97336.59;5043553;28;19928;-58
2022/12/06 07:47:30;;;;;;;;;;;4.10;99.90;;;3.33;100.00;97337.44;5047578;28;19923;-57
2022/12/06 07:49:56;;;;;;;;;;;4.10;99.90;;;3.34;100.00;97332.22;5045509;28;19926;-60
2022/12/06 07:52:21;;;;;;;;;;;4.20;99.90;;;3.38;100.00;97338.25;5045621;28;19919;-60
2022/12/06 07:54:47;;;;;;;;;;;4.20;99.90;;;3.36;100.00;97334.81;5038283;28;19973;-57
2022/12/06 07:57:13;;;;;;;;;;;4.20;99.90;;;3.42;100.00;97329.53;5030329;28;20431;-58
2022/12/06 07:59:38;;;;;;;;;;;4.20;99.90;;;3.44;100.00;97335.59;5047984;28;19916;-58
2022/12/06 08:02:04;;;;;;;;;;;4.30;99.90;;;3.39;100.00;97335.66;5048157;28;19920;-59
2022/12/06 08:04:30;;;;;;;;;;;4.20;99.90;;;3.40;100.00;97337.34;5046575;28;20103;-58
2022/12/06 08:06:56;;;;;;;;;;;4.20;99.90;;;3.40;100.00;97341.72;5050927;28;19960;-58
2022/12/06 08:09:22;;;;;;;;;;;4.20;99.90;;;3.36;100.00;97337.41;5053139;28;20079;-59
2022/12/06 08:11:47;;;;;;;;;;;4.20;99.90;;;3.38;100.00;97331.31;5050013;28;19920;-58
2022/12/06 08:14:14;;;;;;;;;;;4.20;99.90;;;3.38;100.00;97333.91;5055879;28;19919;-58
2022/12/06 08:16:40;;;;;;;;;;;4.20;99.90;;;3.43;100.00;97336.47;5054657;28;19920;-58
2022/12/06 08:19:07;;;;;;;;;;;4.20;99.90;;;3.44;100.00;97336.44;5053489;28;19924;-58
2022/12/06 08:21:32;;;;;;;;;;;4.30;99.90;;;3.46;100.00;97339.03;5050135;28;20506;-57
2022/12/06 08:23:58;;;;;;;;;;;4.30;99.90;;;3.48;100.00;97336.41;5052388;28;20173;-58
2022/12/06 08:26:24;;;;;;;;;;;4.30;99.90;;;3.45;100.00;97329.50;5049885;28;20445;-58
2022/12/06 08:28:50;;;;;;;;;;;4.30;99.90;;;3.47;100.00;97340.78;5054502;28;19916;-60
2022/12/06 08:31:18;;;;;;;;;;;4.30;99.90;;;3.48;100.00;97334.66;5048465;28;19909;-59
2022/12/06 08:33:44;;;;;;;;;;;4.30;99.90;;;3.46;100.00;97341.66;5051997;28;19920;-59
2022/12/06 08:36:12;;;;;;;;;;;4.30;99.90;;;3.48;100.00;97333.81;5044619;28;20006;-57
2022/12/06 08:38:38;;;;;;;;;;;4.30;99.90;;;3.49;100.00;97328.59;5034978;28;20022;-57
2022/12/06 08:41:05;;;;;;;;;;;4.30;99.90;;;3.44;100.00;97336.44;5052064;28;20303;-57
2022/12/06 08:43:31;;;;;;;;;;;4.30;99.90;;;3.41;100.00;97338.22;5052600;28;19947;-57
2022/12/06 08:45:57;;;;;;;;;;;4.30;99.90;;;3.44;100.00;97338.19;5050308;28;20043;-57
2022/12/06 08:48:22;;;;;;;;;;;4.30;99.90;;;3.47;100.00;97343.38;5052175;28;19916;-57
2022/12/06 08:50:48;;;;;;;;;;;4.30;99.90;;;3.51;100.00;97339.84;5046693;28;19920;-60
2022/12/06 08:53:14;;;;;;;;;;;4.30;99.90;;;3.52;100.00;97339.00;5050336;28;20396;-60
2022/12/06 08:55:40;;;;;;;;;;;4.30;99.90;;;3.54;100.00;97338.97;5052398;28;19920;-60
2022/12/06 08:58:06;;;;;;;;;;;4.40;99.90;;;3.56;100.00;97338.06;5055351;28;21924;-57
2022/12/06 09:00:32;;;;;;;;;;;4.40;99.90;;;3.61;100.00;97338.91;5031784;28;19987;-57
2022/12/06 09:02:57;;;;;;;;;;;4.50;99.90;;;3.66;100.00;97348.41;5052558;28;20015;-58
2022/12/06 09:05:23;;;;;;;;;;;4.50;99.90;;;3.59;100.00;97343.28;5055574;28;19923;-57
2022/12/06 09:07:48;;;;;;;;;;;4.50;99.90;;;3.58;100.00;97340.69;5049827;28;19912;-57
2022/12/06 09:10:14;;;;;;;;;;;4.50;99.90;;;3.68;100.00;97351.88;5052998;28;20510;-57
2022/12/06 09:12:40;;;;;;;;;;;4.50;99.90;;;3.71;100.00;97357.06;5049391;28;19944;-57
2022/12/06 09:15:06;;;;;;;;;;;4.50;99.90;;;3.67;100.00;97355.38;5049367;28;20053;-58
2022/12/06 09:17:31;;;;;;;;;;;4.50;99.90;;;3.60;100.00;97338.91;5049661;28;19912;-57
2022/12/06 09:19:57;;;;;;;;;;;4.50;99.90;;;3.64;100.00;97358.84;5053880;28;19931;-57
2022/12/06 09:22:23;;;;;;;;;;;4.50;99.90;;;3.66;100.00;97356.22;5054579;28;19975;-57
2022/12/06 09:24:48;;;;;;;;;;;4.50;99.90;;;3.73;100.00;97355.28;5056420;28;19912;-58
2022/12/06 09:27:14;;;;;;;;;;;4.60;99.90;;;3.80;100.00;97357.84;5052749;28;20504;-57
2022/12/06 09:29:39;;;;;;;;;;;4.60;99.90;;;3.88;100.00;97356.91;5052129;28;19947;-49
2022/12/06 09:32:05;;;;;;;;;;;4.70;99.90;;;3.88;100.00;97349.91;5052701;28;20428;-57
2022/12/06 09:34:31;;;;;;;;;;;4.70;99.90;;;3.81;100.00;97349.13;5054344;28;19958;-57
2022/12/06 09:37:01;;;;;;;;;;;4.70;99.90;;;3.89;100.00;97356.84;5038127;28;19916;-57
2022/12/06 09:39:31;;;;;;;;;;;4.70;99.90;;;3.90;100.00;97355.13;5038979;28;19920;-57
2022/12/06 09:42:14;;;;;;;;;;;4.80;99.90;;;3.95;100.00;97355.94;5054511;28;19924;-57
2022/12/06 09:45:04;;;;;;;;;;;4.80;99.90;;;3.99;100.00;97358.47;5053118;28;19912;-58
2022/12/06 09:47:41;;;;;;;;;;;4.80;99.90;;;4.03;100.00;97358.44;5056422;28;19974;-57
2022/12/06 09:50:28;;;;;;;;;;;4.80;99.90;;;3.85;100.00;97362.13;5033133;28;19978;-57
2022/12/06 09:53:15;;;;;;;;;;;4.80;99.90;;;3.85;100.00;97352.56;5037746;28;20195;-57
2022/12/06 09:55:52;;;;;;;;;;;4.70;99.90;;;3.90;100.00;97365.56;5059078;28;19957;-57
2022/12/06 09:58:26;;;;;;;;;;;4.70;99.90;;;3.71;100.00;97342.25;5054727;28;19920;-57
2022/12/06 10:01:05;;;;;;;;;;;4.70;99.90;;;3.81;100.00;97359.56;5052681;28;20080;-57
2022/12/06 10:03:46;;;;;;;;;;;4.70;99.90;;;3.79;100.00;97366.53;5042557;28;19932;-57
2022/12/06 10:06:13;;;;;;;;;;;4.70;99.90;;;3.75;100.00;97357.03;5053162;28;20020;-57
2022/12/06 10:09:04;;;;;;;;;;;4.60;99.90;;;3.72;100.00;97357.03;5058264;28;19919;-57
2022/12/06 10:11:42;;;;;;;;;;;4.60;99.90;;;3.75;100.00;97348.31;5054555;28;19920;-57
2022/12/06 10:14:15;;;;;;;;;;;4.70;99.90;;;3.81;100.00;97348.25;5037309;28;19913;-57
2022/12/06 10:17:22;;;;;;;;;;;4.70;99.90;;;3.80;100.00;97352.63;5055012;28;19966;-57
2022/12/06 10:20:00;;;;;;;;;;;4.70;99.90;;;3.87;100.00;97347.31;5024748;28;20430;-57
2022/12/06 10:22:36;;;;;;;;;;;4.70;99.90;;;3.92;100.00;97345.53;5059369;28;20018;-57
2022/12/06 10:25:41;;;;;;;;;;;4.80;99.90;;;3.72;100.00;97344.00;5070308;22;20011;-42
2022/12/06 10:28:12;;;;;;;;;;;4.80;99.90;;;3.77;100.00;97341.34;5054170;28;20006;-43
2022/12/06 10:30:49;;;;;;;;;;;4.70;99.90;;;3.73;100.00;97350.97;5040778;28;19912;-44
2022/12/06 10:33:36;;;;;;;;;;;4.70;99.90;;;3.82;100.00;97345.63;5047929;28;19947;-43
2022/12/06 10:36:04;;;;;;;;;;;4.70;99.90;;;3.84;100.00;97337.81;5053532;28;19912;-42
2022/12/06 10:38:40;;;;;;;;;;;4.70;99.90;;;3.82;100.00;97332.59;5056028;28;19916;-46
2022/12/06 10:41:17;;;;;;;;;;;4.70;99.90;;;3.85;100.00;97334.28;5032905;28;19920;-43
2022/12/06 10:43:56;;;;;;;;;;;4.80;99.90;;;3.86;100.00;97333.44;5030804;28;19998;-44
2022/12/06 10:49:50;;;;;;;;;;;4.80;99.90;;;3.78;100.00;97332.63;5033887;28;20429;-45
2022/12/06 10:52:15;;;;;;;;;;;4.70;99.90;;;3.72;100.00;97337.94;5035577;28;19970;-43
2022/12/06 10:54:47;;;;;;;;;;;4.60;99.90;;;3.71;100.00;97338.78;5050819;28;20505;-43
2022/12/06 10:57:37;;;;;;;;;;;4.60;99.90;;;3.69;100.00;97328.38;5044112;28;19920;-43
2022/12/06 11:00:16;;;;;;;;;;;4.60;99.90;;;3.66;100.00;97325.81;5051364;28;19920;-44
2022/12/06 11:02:53;;;;;;;;;;;4.60;99.90;;;3.63;100.00;97321.47;5032544;28;19924;-44
2022/12/06 11:05:42;;;;;;;;;;;4.60;99.90;;;3.67;100.00;97316.25;5048739;28;20085;-43
2022/12/06 11:08:15;;;;;;;;;;;4.50;99.90;;;3.61;100.00;97310.22;5028250;28;19924;-46
2022/12/06 11:10:43;;;;;;;;;;;4.50;99.90;;;3.60;100.00;97318.03;5036494;28;19917;-43
2022/12/06 11:13:21;;;;;;;;;;;4.50;99.90;;;3.61;100.00;97309.34;5032769;28;19994;-45
2022/12/06 11:15:51;;;;;;;;;;;4.50;99.90;;;3.61;100.00;97305.00;5032317;28;20403;-43
2022/12/06 11:18:18;;;;;;;;;;;4.50;99.90;;;3.57;100.00;97313.75;5045458;28;19928;-46
2022/12/06 11:20:52;;;;;;;;;;;4.50;99.90;;;3.55;100.00;97307.69;5054677;28;20276;-43
2022/12/06 11:23:55;;;;;;;;;;;4.50;99.90;;;3.40;100.00;97290.44;5032124;28;19924;-43
2022/12/06 11:26:41;;;;;;;;;;;4.40;99.90;;;3.49;100.00;97314.69;5048594;28;20407;-45
2022/12/06 11:29:10;;;;;;;;;;;4.40;99.90;;;3.48;100.00;97316.41;5033983;28;19920;-43
2022/12/06 11:31:41;;;;;;;;;;;4.40;99.90;;;3.48;100.00;97319.03;5034193;28;19928;-43
2022/12/06 11:34:14;;;;;;;;;;;4.40;99.90;;;3.44;100.00;97309.50;5031756;28;19963;-43
2022/12/06 11:36:39;;;;;;;;;;;4.40;99.90;;;3.40;100.00;97310.44;5051280;28;19924;-45
2022/12/06 11:39:05;;;;;;;;;;;4.30;99.90;;;3.40;100.00;97319.09;5035387;28;20007;-43
2022/12/06 11:41:33;;;;;;;;;;;4.30;99.90;;;3.41;100.00;97319.97;5051787;28;20342;-44
2022/12/06 11:43:59;;;;;;;;;;;4.30;99.90;;;3.48;100.00;97320.78;5049232;28;20004;-44
2022/12/06 11:46:25;;;;;;;;;;;4.30;99.90;;;3.44;100.00;97315.59;5050167;28;20199;-46
2022/12/06 11:48:51;;;;;;;;;;;4.30;99.90;;;3.40;100.00;97320.84;5037669;28;19948;-46
2022/12/06 11:51:23;;;;;;;;;;;4.30;99.90;;;3.37;100.00;97307.84;5047626;28;19919;-43
2022/12/06 11:53:52;;;;;;;;;;;4.30;99.90;;;3.35;100.00;97315.69;5054642;28;19912;-44
2022/12/06 11:56:26;;;;;;;;;;;4.30;99.90;;;3.31;100.00;97310.53;5037006;28;19960;-43
2022/12/06 11:58:57;;;;;;;;;;;4.20;99.90;;;3.36;100.00;97312.22;5040546;28;20272;-44
2022/12/06 12:01:55;;;;;;;;;;;4.20;99.90;;;3.33;100.00;97320.03;5021883;28;20439;-44
2022/12/06 12:04:23;;;;;;;;;;;4.20;99.90;;;3.29;100.00;97314.91;5026328;28;19956;-43